Date,TemperatureHighF,TemperatureAvgF,TemperatureLowF,DewpointHighF,DewpointAvgF,DewpointLowF,HumidityHigh,HumidityAvg,HumidityLow,PressureMaxIn,PressureMinIn,WindSpeedMaxMPH,WindSpeedAvgMPH,GustSpeedMaxMPH,PrecipitationSumIn
2013-1-1,43,37,32,42,35,29,95,92,89,30.23,30.02,14,3,14,0.30
2013-1-2,37,31,26,28,25,22,92,78,58,30.31,30.20,9,2,9,0.00
2013-1-3,48,34,24,31,27,21,91,77,48,30.45,30.28,12,1,12,0.00
2013-1-4,51,36,26,33,28,23,92,76,45,30.52,30.41,12,1,12,0.00
2013-1-5,46,39,30,38,32,26,90,78,63,30.42,30.27,10,1,10,0.00
2013-1-6,54,42,30,40,35,26,94,79,50,30.40,30.24,15,3,15,0.00
2013-1-7,57,36,24,33,27,21,90,72,36,30.45,30.22,10,1,10,0.00
2013-1-8,60,45,30,45,36,26,89,71,48,30.29,30.15,7,1,7,0.00
2013-1-9,57,55,53,55,53,45,96,93,73,30.35,30.20,9,1,9,0.93
2013-1-10,69,62,56,65,61,54,97,94,86,30.28,29.88,26,7,26,0.70
2013-1-11,69,63,56,62,55,51,93,78,53,30.04,29.92,17,4,17,0.03
2013-1-12,72,69,64,68,66,62,97,90,82,29.94,29.72,18,5,18,0.14
2013-1-13,71,43,32,66,41,28,100,93,82,30.29,29.72,18,6,18,3.02
2013-1-14,32,29,28,28,26,24,92,86,78,30.42,30.27,18,4,18,0.00
2013-1-15,32,30,27,31,28,23,94,91,86,30.29,30.07,12,2,12,0.00
2013-1-16,34,32,30,32,30,29,94,92,90,30.20,30.07,0,0,0,0.08
2013-1-17,49,38,31,38,33,28,93,81,63,30.49,30.13,21,3,21,0.17
2013-1-18,56,38,26,33,28,23,92,71,35,30.59,30.35,7,1,7,0.00
2013-1-19,60,48,36,37,34,29,79,60,38,30.36,30.18,15,3,15,0.00
2013-1-20,64,46,31,40,34,28,94,65,34,30.28,30.16,8,1,8,0.00
2013-1-21,47,36,27,30,23,20,83,60,35,30.37,30.18,12,3,12,0.00
2013-1-22,45,33,24,22,20,16,88,61,37,30.45,30.33,7,1,7,0.00
2013-1-23,58,41,27,39,31,20,84,67,49,30.36,30.18,9,1,9,0.00
2013-1-24,43,40,36,40,26,21,91,59,45,30.45,30.21,12,2,12,0.00
2013-1-25,49,40,33,45,34,23,94,80,47,30.27,30.03,16,2,16,0.15
2013-1-26,59,44,31,41,34,30,94,72,43,30.35,30.25,6,1,6,0.01
2013-1-27,65,56,48,55,46,35,81,70,62,30.26,30.11,12,4,12,0.00
2013-1-28,74,65,59,63,58,54,91,79,66,30.17,30.04,15,5,15,0.00
2013-1-29,76,69,61,66,62,58,95,79,62,30.05,29.42,32,8,32,0.76
2013-1-30,61,48,35,58,42,27,97,80,60,30.04,29.52,30,8,30,1.75
2013-1-31,57,42,30,36,30,23,85,64,42,30.34,30.04,20,5,20,0.00
2013-2-1,41,31,22,23,15,10,67,52,35,30.56,30.33,20,3,20,0.00
2013-2-2,38,33,28,33,25,17,88,75,60,30.33,30.18,5,1,5,0.01
2013-2-3,57,45,35,36,32,27,92,63,35,30.20,30.03,23,5,23,0.00
2013-2-4,59,50,38,45,38,30,90,66,40,30.12,29.92,15,3,15,0.06
2013-2-5,67,51,39,52,44,37,94,79,47,30.06,29.93,10,1,10,0.00
2013-2-6,65,52,38,46,42,35,95,71,49,30.21,30.04,9,1,9,0.00
2013-2-7,71,58,44,57,50,39,92,75,56,30.04,29.86,7,1,7,0.05
2013-2-8,58,45,34,56,40,30,95,83,65,30.32,29.89,15,5,15,0.41
2013-2-9,52,43,31,41,34,28,92,74,54,30.34,30.05,12,2,12,0.00
2013-2-10,61,56,50,59,50,38,95,80,56,30.05,29.73,20,7,20,0.72
2013-2-11,63,52,46,54,37,31,83,57,32,30.21,29.95,16,2,16,0.00
2013-2-12,54,48,37,42,39,34,92,72,53,30.16,29.80,12,1,12,0.01
2013-2-13,46,42,40,42,39,37,94,88,79,30.03,29.78,12,3,12,0.07
2013-2-14,64,50,37,43,38,34,92,68,34,30.07,29.99,18,3,18,0.00
2013-2-15,57,46,35,40,34,27,90,66,37,30.21,30.04,20,4,20,0.00
2013-2-16,44,35,29,27,23,17,76,60,39,30.29,30.20,16,4,16,0.00
2013-2-17,57,44,32,32,26,21,71,51,35,30.28,30.07,15,4,15,0.00
2013-2-18,59,52,44,53,44,32,93,74,53,30.09,29.76,26,7,26,0.81
2013-2-19,51,42,31,41,31,26,86,65,40,30.29,29.96,24,7,24,0.00
2013-2-20,40,34,30,29,22,17,92,63,45,30.38,30.20,7,1,7,0.00
2013-2-21,46,40,34,44,33,24,95,78,48,30.20,29.76,15,4,15,0.74
2013-2-22,51,43,38,42,39,32,96,87,66,30.10,29.88,12,2,12,0.00
2013-2-23,58,41,31,36,31,27,90,71,41,30.08,29.96,10,2,10,0.00
2013-2-24,64,46,29,38,32,26,91,62,34,30.12,29.91,9,1,9,0.00
2013-2-25,61,53,41,54,40,29,94,64,43,29.92,29.30,23,7,23,0.52
2013-2-26,55,46,42,53,40,34,94,80,69,29.82,29.32,24,9,24,0.01
2013-2-27,45,43,40,37,34,30,75,71,66,29.98,29.82,17,7,17,0.00
2013-2-28,44,40,35,32,30,28,80,68,59,30.11,29.98,20,6,20,0.00
2013-3-1,40,36,34,31,29,27,82,76,67,30.17,30.10,12,6,12,0.00
2013-3-2,37,33,31,30,27,22,89,78,63,30.26,30.15,20,6,20,0.01
2013-3-3,51,38,24,30,24,20,89,61,34,30.25,30.07,13,2,13,0.00
2013-3-4,69,55,38,49,35,26,66,48,31,30.08,29.76,25,6,25,0.00
2013-3-5,64,51,38,58,40,25,93,69,42,30.19,29.75,28,11,28,0.46
2013-3-6,52,40,34,32,27,23,83,61,45,30.37,30.19,20,6,20,0.00
2013-3-7,59,43,32,36,32,28,88,67,38,30.41,30.28,6,1,6,0.00
2013-3-8,68,50,34,39,32,24,85,55,20,30.40,30.17,9,1,9,0.00
2013-3-9,72,61,51,42,36,29,54,40,27,30.17,29.92,14,4,14,0.00
2013-3-10,66,59,53,58,51,42,96,77,44,29.95,29.74,22,7,22,1.05
2013-3-11,52,43,37,51,36,33,95,78,60,30.05,29.83,17,6,17,0.00
2013-3-12,60,44,30,38,32,25,92,66,30,30.22,30.03,15,3,15,0.00
2013-3-13,53,44,36,36,30,26,77,58,39,30.42,30.22,18,7,18,0.00
2013-3-14,68,55,46,50,37,27,78,53,31,30.41,30.07,7,1,13,0.00
2013-3-15,79,73,67,55,52,48,53,48,43,30.07,29.88,10,4,22,0.00
2013-3-16,79,68,59,58,54,48,80,62,49,29.91,29.81,21,6,21,0.00
2013-3-17,74,61,53,58,52,48,88,74,54,29.91,29.67,15,2,15,0.00
2013-3-18,69,56,42,62,52,40,95,87,74,30.05,29.65,20,4,20,0.52
2013-3-19,63,48,34,42,33,23,97,61,24,30.20,30.04,10,2,10,0.00
2013-3-20,57,47,35,39,29,15,87,51,29,30.24,30.08,22,6,22,0.00
2013-3-21,51,40,31,33,22,15,88,50,29,30.13,29.95,9,2,9,0.06
2013-3-22,48,42,35,45,40,32,98,92,88,30.00,29.88,10,2,10,0.33
2013-3-23,57,50,46,53,48,44,94,89,80,29.92,29.67,10,1,11,0.34
2013-3-24,52,46,37,50,41,28,97,83,66,29.96,29.51,29,10,29,0.06
2013-3-25,40,37,34,30,26,23,76,64,55,30.26,29.96,24,13,24,0.00
2013-3-26,53,40,32,31,28,24,85,63,39,30.37,30.25,22,6,22,0.00
2013-3-27,64,45,29,37,31,25,88,62,31,30.43,30.29,12,2,12,0.00
2013-3-28,73,54,36,43,37,32,88,59,29,30.36,30.21,12,1,12,0.00
2013-3-29,65,55,48,54,46,37,93,74,39,30.26,30.16,15,1,15,0.10
2013-3-30,59,54,50,57,53,48,96,94,92,30.18,29.92,10,1,10,0.25
2013-3-31,64,58,48,60,55,45,97,92,76,29.97,29.86,12,2,12,0.03
2013-4-1,74,57,43,53,46,40,95,69,40,30.12,29.93,12,2,12,0.01
2013-4-2,54,48,41,41,35,30,92,64,44,30.26,30.09,10,2,10,0.27
2013-4-3,50,46,41,42,35,29,90,65,47,30.23,30.12,10,2,10,0.06
2013-4-4,50,46,42,48,43,34,98,89,55,30.12,29.98,6,1,6,0.38
2013-4-5,75,56,43,52,44,39,98,70,31,30.17,30.05,10,2,10,0.00
2013-4-6,77,61,44,46,43,38,90,57,27,30.10,29.91,17,4,17,0.00
2013-4-7,72,64,57,58,53,45,83,67,53,30.03,29.90,15,3,15,0.00
2013-4-8,81,70,61,61,58,53,82,67,47,29.99,29.84,16,4,16,0.00
2013-4-9,84,75,67,69,65,59,85,72,58,29.98,29.85,15,6,15,0.00
2013-4-10,86,78,72,69,67,65,83,69,51,29.94,29.67,22,7,22,0.04
2013-4-11,76,53,44,68,52,43,97,96,75,29.82,29.66,18,4,18,2.95
2013-4-12,71,55,41,50,45,40,96,73,44,30.00,29.81,18,3,18,0.00
2013-4-13,80,60,44,53,46,39,89,63,30,30.11,29.91,9,1,9,0.00
2013-4-14,70,61,52,58,52,48,88,74,55,29.91,29.74,22,5,22,0.00
2013-4-15,85,70,57,66,60,54,93,74,48,29.92,29.81,16,6,16,0.00
2013-4-16,88,78,70,73,70,64,89,77,59,30.03,29.90,17,5,17,0.00
2013-4-17,89,79,70,73,70,67,93,75,54,30.06,29.84,20,5,20,0.00
2013-4-18,81,71,46,70,63,44,96,76,56,29.88,29.59,29,8,29,2.00
2013-4-19,59,48,43,44,38,33,96,71,45,30.15,29.84,21,8,21,0.02
2013-4-20,73,56,40,47,41,37,92,62,32,30.26,30.14,14,2,14,0.00
2013-4-21,76,60,46,49,42,38,84,57,29,30.34,30.18,14,2,14,0.00
2013-4-22,76,61,45,53,48,41,89,64,39,30.20,30.01,14,3,14,0.00
2013-4-23,76,67,57,63,59,51,88,77,62,30.05,29.89,17,4,17,0.00
2013-4-24,70,52,43,65,47,40,96,84,56,30.30,29.85,21,5,21,1.55
2013-4-25,77,54,38,50,42,35,93,68,31,30.39,30.28,10,1,10,0.00
2013-4-26,69,56,48,54,48,44,92,75,44,30.42,30.21,10,2,10,0.10
2013-4-27,74,63,54,69,59,50,96,88,79,30.22,29.86,17,3,17,0.28
2013-4-28,70,62,54,60,56,51,93,83,64,29.97,29.92,13,3,13,0.00
2013-4-29,83,65,49,63,55,46,95,74,43,30.01,29.86,9,2,9,0.00
2013-4-30,85,70,53,62,57,50,92,66,40,29.95,29.87,13,2,13,0.00
2013-5-1,81,70,62,68,62,56,87,75,59,30.04,29.92,15,3,15,0.00
2013-5-2,71,66,64,64,62,59,96,87,72,30.10,29.99,9,1,9,0.22
2013-5-3,65,50,39,63,48,38,97,96,93,30.01,29.88,16,5,16,1.67
2013-5-4,58,46,36,46,41,34,96,84,56,29.98,29.88,13,2,13,0.11
2013-5-5,64,53,46,52,48,44,97,85,56,29.93,29.86,22,4,22,0.60
2013-5-6,66,59,53,58,55,51,95,88,74,29.94,29.85,16,3,16,0.02
2013-5-7,79,64,52,63,57,50,96,80,53,30.01,29.93,10,1,10,0.00
2013-5-8,85,69,54,67,59,51,94,74,43,30.07,29.98,10,1,10,0.00
2013-5-9,83,72,59,66,62,56,92,73,50,30.07,29.94,18,3,18,0.00
2013-5-10,78,68,64,72,66,62,97,91,75,29.95,29.85,18,2,18,1.51
2013-5-11,77,66,59,65,60,54,97,81,51,30.07,29.92,13,3,13,0.00
2013-5-12,71,60,48,58,43,37,87,56,31,30.23,30.07,14,3,14,0.00
2013-5-13,78,62,44,57,49,42,94,67,37,30.27,30.12,9,1,9,0.00
2013-5-14,88,75,61,65,57,52,75,56,38,30.12,29.99,17,4,17,0.00
2013-5-15,76,70,65,57,56,52,75,61,45,30.11,30.03,13,3,13,0.00
2013-5-23,85,73,61,68,63,59,96,74,54,30.11,29.89,14,3,14,0.10
2013-5-24,80,67,56,61,55,52,89,68,41,30.30,30.11,13,3,13,0.00
2013-5-25,83,67,51,62,55,48,94,69,41,30.30,30.13,10,2,10,0.00
2013-5-26,86,73,58,63,59,56,93,66,36,30.19,30.07,12,2,12,0.00
2013-5-27,88,76,63,72,64,59,90,68,42,30.09,29.95,17,4,17,0.00
2013-5-28,90,80,73,71,66,60,82,64,42,30.03,29.93,15,5,15,0.00
2013-5-29,89,80,67,72,66,60,81,65,42,30.03,29.90,16,5,16,0.00
2013-5-30,87,78,72,75,71,68,91,79,61,30.01,29.88,20,6,20,0.09
2013-5-31,86,78,66,77,73,65,97,85,70,30.01,29.82,20,4,20,2.42
2013-6-1,83,74,68,75,71,66,95,89,66,29.98,29.79,26,4,26,0.27
2013-6-2,81,73,68,71,67,62,97,82,62,29.96,29.89,12,3,12,0.00
2013-6-3,85,72,62,70,64,59,94,76,52,30.01,29.91,9,1,9,0.00
2013-6-4,88,75,62,72,65,59,92,72,49,30.00,29.89,9,1,9,0.00
2013-6-5,90,78,69,78,71,64,90,78,61,29.94,29.78,20,2,20,0.00
2013-6-6,85,77,69,72,69,67,94,78,59,29.83,29.74,12,3,12,0.00
2013-6-7,85,75,65,68,63,58,88,69,43,29.88,29.76,12,4,12,0.00
2013-6-8,87,73,60,66,61,56,93,69,40,29.98,29.87,9,1,9,0.00
2013-6-9,91,76,66,73,68,61,92,77,52,29.97,29.79,13,3,13,0.00
2013-6-10,94,82,68,74,70,67,95,69,42,29.91,29.84,20,4,20,0.00
2013-6-11,98,86,74,78,73,70,89,67,45,30.00,29.90,14,3,14,0.00
2013-6-12,97,88,75,80,75,72,92,68,51,30.03,29.88,16,4,16,0.00
2013-6-13,96,86,74,79,73,66,80,67,46,29.94,29.85,17,6,17,0.00
2013-6-14,91,78,67,68,65,61,93,66,40,30.03,29.92,10,1,13,0.00
2013-6-15,89,78,64,71,66,62,94,70,46,30.05,29.94,9,1,9,0.00
2013-6-16,88,79,70,76,71,68,93,77,60,30.02,29.92,10,1,10,0.00
2013-6-17,84,76,71,76,72,70,97,89,74,29.97,29.83,29,2,29,1.22
2013-6-18,84,75,69,74,71,68,98,88,64,29.96,29.81,12,2,12,0.01
2013-6-19,91,76,67,74,70,65,97,84,49,30.03,29.93,24,1,24,0.71
2013-6-20,92,80,67,76,71,67,98,76,47,30.11,30.02,7,1,7,0.01
2013-6-21,91,82,71,76,72,68,92,74,53,30.15,30.05,12,2,12,0.00
2013-6-22,91,82,71,75,72,68,92,72,54,30.12,29.99,13,2,13,0.00
2013-6-23,91,82,72,75,71,68,89,72,50,30.08,29.98,10,2,10,0.00
2013-6-24,93,84,74,77,74,71,92,74,53,30.11,29.98,12,2,12,0.00
2013-6-25,92,84,75,78,74,70,92,73,52,30.06,29.91,15,5,15,0.00
2013-6-26,93,85,76,77,73,71,90,69,51,29.98,29.83,20,6,20,0.00
2013-6-27,98,87,77,82,76,70,86,71,53,29.90,29.79,17,3,17,0.00
2013-6-28,90,79,72,78,73,70,98,83,59,29.89,29.69,26,2,26,0.88
2013-6-29,89,80,68,71,67,62,96,68,41,29.75,29.66,12,2,12,0.00
2013-6-30,80,74,66,68,66,64,93,76,60,29.81,29.70,12,3,12,0.00
2013-7-1,82,73,68,70,66,62,94,78,60,29.92,29.80,15,3,15,0.02
2013-7-2,84,74,63,68,65,61,94,74,52,30.02,29.90,12,2,12,0.00
2013-7-3,84,73,63,69,65,61,96,78,51,30.08,29.99,8,1,8,0.01
2013-7-4,88,77,64,75,69,62,96,78,54,30.03,29.92,10,2,10,0.00
2013-7-5,87,75,67,74,70,64,96,83,60,30.05,29.95,14,2,14,0.71
2013-7-6,88,78,67,74,71,64,95,80,57,30.05,29.94,12,2,12,0.00
2013-7-7,89,80,72,76,73,70,95,80,61,30.07,30.00,12,2,12,0.00
2013-7-8,91,82,73,78,75,71,96,80,60,30.13,30.03,10,2,10,0.00
2013-7-9,93,85,75,77,75,72,94,73,52,30.11,29.97,12,2,12,0.00
2013-7-10,95,87,79,79,76,72,87,71,51,30.03,29.85,12,2,12,0.00
2013-7-11,96,86,76,80,73,66,92,68,48,29.94,29.86,12,3,12,0.00
2013-7-12,89,79,68,68,65,62,82,63,47,30.01,29.92,14,4,14,0.00
2013-7-13,88,77,63,68,64,60,92,65,43,30.02,29.93,12,2,12,0.00
2013-7-14,89,78,68,75,70,65,92,79,59,30.06,29.95,16,2,16,0.00
2013-7-15,90,80,73,78,74,71,94,82,63,30.16,30.05,20,2,20,0.02
2013-7-16,94,83,73,78,74,71,94,75,53,30.24,30.16,12,2,12,0.00
2013-7-17,96,86,72,79,74,70,95,72,48,30.28,30.13,6,1,9,0.00
2013-7-18,95,80,73,81,75,72,97,88,58,30.16,30.00,12,1,16,0.53
2013-7-19,90,80,72,78,74,71,98,83,60,30.07,29.92,12,2,12,0.01
2013-7-20,92,83,73,78,74,72,95,77,58,29.95,29.82,12,2,12,0.00
2013-7-21,92,83,75,78,74,72,92,75,56,29.94,29.85,13,2,13,0.00
2013-7-22,86,80,73,79,74,70,98,84,69,29.94,29.84,14,5,14,2.56
2013-7-23,89,80,71,78,75,69,96,85,67,29.99,29.80,12,2,12,0.34
2013-7-24,86,80,74,77,74,70,93,82,67,29.94,29.83,10,2,10,0.05
2013-7-25,84,76,67,70,65,62,88,70,49,30.05,29.94,13,2,13,0.00
2013-7-26,84,74,63,70,66,61,96,79,57,30.05,29.94,12,1,12,0.00
2013-7-27,86,77,71,72,70,66,93,79,56,29.98,29.87,7,1,7,0.00
2013-7-28,83,74,68,68,65,63,89,74,57,30.05,29.93,9,2,9,0.00
2013-7-29,89,78,67,72,68,63,89,72,55,30.13,30.03,12,1,12,0.00
2013-7-30,85,78,73,77,72,68,92,82,66,30.11,29.99,12,1,12,0.09
2013-7-31,89,79,74,79,75,72,95,88,71,30.04,29.90,14,1,14,0.13
2013-8-1,90,80,72,76,72,69,97,80,58,30.03,29.94,12,3,12,0.01
2013-8-2,90,79,66,75,70,65,96,77,52,30.01,29.93,9,1,9,0.00
2013-8-3,83,78,73,76,73,71,95,86,79,30.05,29.91,12,1,12,0.02
2013-8-4,92,80,69,77,73,68,97,79,58,30.09,30.01,12,2,12,0.00
2013-8-5,82,76,71,77,73,69,97,90,78,30.04,29.89,7,1,7,0.94
2013-8-6,87,80,75,79,76,73,96,87,74,29.94,29.85,9,2,9,0.00
2013-8-7,92,84,76,81,77,74,94,81,60,29.93,29.83,12,2,12,0.00
2013-8-8,95,86,78,81,78,76,95,79,59,29.93,29.83,7,2,7,0.00
2013-8-9,95,86,77,81,77,74,93,75,53,29.99,29.90,9,2,9,0.00
2013-8-10,89,82,76,77,75,72,94,80,60,30.11,29.97,10,2,10,0.00
2013-8-11,86,78,76,80,76,74,96,91,77,30.12,30.02,12,1,12,0.33
2013-8-12,92,83,73,80,76,72,95,81,65,30.03,29.90,18,3,18,0.06
2013-8-13,87,78,72,77,73,69,97,85,66,30.00,29.90,10,2,10,0.01
2013-8-14,80,74,66,69,63,58,86,70,52,30.07,29.95,15,5,15,0.00
2013-8-15,81,71,59,63,59,55,89,68,43,30.07,29.98,12,3,12,0.00
2013-8-16,84,73,63,71,66,59,90,79,58,30.04,29.97,12,2,12,0.00
2013-8-17,81,74,67,73,69,65,95,85,69,30.07,29.99,10,1,10,0.07
2013-8-18,84,75,67,72,69,65,96,83,63,30.11,30.01,7,1,7,0.00
2013-8-19,88,77,66,73,70,65,96,80,59,30.08,29.98,9,1,9,0.00
2013-8-20,90,79,68,77,72,67,96,82,59,30.08,29.99,9,1,9,0.00
2013-8-21,93,82,71,79,74,70,96,78,51,30.12,30.02,9,1,9,0.00
2013-8-22,94,82,73,79,75,72,96,79,54,30.11,29.98,10,1,10,0.00
2013-8-23,94,83,71,78,73,70,96,76,51,30.05,29.96,10,2,10,0.00
2013-8-24,95,84,74,80,75,71,94,76,51,30.11,30.01,12,2,12,0.05
2013-8-25,89,83,76,77,75,73,92,79,64,30.24,30.14,7,2,7,0.05
2013-8-26,91,80,70,75,71,69,96,77,50,30.24,30.10,9,1,9,0.00
2013-8-27,91,79,68,75,69,65,94,73,48,30.14,30.02,6,1,6,0.00
2013-8-28,94,81,68,75,70,66,95,73,43,30.08,29.99,12,1,12,0.00
2013-8-29,96,83,71,78,73,69,95,74,47,30.06,29.95,7,1,7,0.00
2013-8-30,98,85,73,79,74,71,95,74,44,30.00,29.86,9,1,9,0.00
2013-8-31,98,85,74,77,74,72,93,72,49,29.90,29.79,12,1,12,0.00
2013-9-1,95,83,77,77,74,72,88,75,54,29.89,29.78,17,2,17,0.00
2013-9-2,91,81,75,78,75,73,94,82,60,29.91,29.80,14,2,14,0.00
2013-9-3,91,79,68,74,68,62,96,73,44,30.01,29.89,13,3,13,0.00
2013-9-4,88,76,62,71,66,61,96,73,51,30.10,29.99,12,2,12,0.00
2013-9-5,91,77,64,71,66,62,95,72,45,30.14,30.06,12,2,12,0.00
2013-9-6,93,78,66,72,67,62,93,72,38,30.13,30.01,7,1,7,0.00
2013-9-7,96,79,66,75,69,64,94,74,42,30.06,29.93,9,1,9,0.00
2013-9-8,98,83,69,77,72,67,95,72,41,29.97,29.86,9,1,9,0.00
2013-9-9,93,82,74,78,74,71,90,78,54,30.03,29.91,10,1,10,0.04
2013-9-10,97,82,73,78,73,71,94,77,46,30.11,30.00,14,1,14,0.08
2013-9-11,94,82,74,77,74,72,95,77,51,30.15,30.03,13,1,13,0.00
2013-9-12,94,82,72,75,73,70,94,76,50,30.04,29.90,12,1,12,0.00
2013-9-13,85,76,65,72,62,56,93,65,40,30.01,29.92,14,4,14,0.00
2013-9-14,79,67,56,57,54,50,87,65,39,30.09,30.00,14,3,14,0.00
2013-9-15,87,69,52,64,56,50,94,69,33,30.09,30.02,13,1,13,0.00
2013-9-16,92,75,59,69,62,57,94,68,32,30.13,30.06,13,2,13,0.00
2013-9-17,93,79,67,70,67,64,94,70,43,30.14,30.00,8,2,8,0.00
2013-9-18,89,82,73,75,72,69,89,74,60,30.09,29.99,10,4,10,0.00
2013-9-19,93,81,70,74,70,67,95,72,46,30.08,29.93,13,2,13,0.00
2013-9-20,79,74,70,75,71,68,98,89,70,29.96,29.81,10,1,10,1.53
2013-9-21,78,69,59,70,61,55,98,78,48,29.91,29.79,12,4,12,0.11
2013-9-22,79,66,55,60,56,53,95,72,44,29.94,29.85,17,2,17,0.00
2013-9-23,85,74,55,66,62,53,94,69,46,29.95,29.85,12,2,12,0.00
2013-9-24,79,71,65,73,68,62,96,91,81,29.90,29.78,9,1,9,0.02
2013-9-25,84,75,68,73,69,66,97,84,58,29.82,29.75,7,1,7,0.01
2013-9-26,90,75,64,73,67,62,97,79,50,29.97,29.81,10,1,10,0.00
2013-9-27,87,73,62,71,66,61,96,80,52,30.07,29.97,6,1,6,0.00
2013-9-28,84,75,64,66,63,61,94,69,50,30.11,29.99,12,3,12,0.00
2013-9-29,70,68,65,66,63,61,96,87,75,30.03,29.94,6,1,6,0.11
2013-9-30,77,70,66,71,67,65,97,93,82,29.97,29.90,7,1,7,0.05
2013-10-1,84,74,68,74,70,66,95,86,68,30.04,29.94,13,2,13,0.01
2013-10-2,87,75,69,72,69,67,96,82,57,30.09,30.00,12,1,12,0.00
2013-10-3,87,76,65,74,70,64,96,81,60,30.04,29.93,12,2,12,0.00
2013-10-4,86,76,70,75,72,68,96,86,69,30.04,29.95,9,2,9,0.00
2013-10-5,87,79,73,75,73,71,95,81,63,30.01,29.84,14,2,14,0.03
2013-10-6,76,63,56,73,56,48,95,78,50,29.98,29.85,13,2,13,0.66
2013-10-7,71,58,48,55,51,46,95,77,53,30.10,29.95,13,2,13,0.00
2013-10-8,75,61,49,58,52,47,95,75,46,30.15,30.04,15,2,15,0.00
2013-10-9,78,65,54,67,60,52,94,85,66,30.13,30.04,12,1,12,0.00
2013-10-10,82,67,57,67,62,56,97,84,53,30.14,30.00,5,1,5,0.00
2013-10-11,84,69,57,67,61,55,97,80,50,30.05,29.94,9,1,9,0.00
2013-10-12,75,66,59,70,64,57,96,92,79,30.11,29.97,15,1,15,0.37
2013-10-13,81,70,61,68,64,57,97,82,60,30.25,30.11,12,3,12,0.00
2013-10-14,84,69,56,67,61,52,92,76,51,30.21,30.04,10,1,10,0.00
2013-10-15,73,70,67,68,66,64,96,87,79,30.04,29.93,10,2,10,0.27
2013-10-16,68,61,57,67,60,56,97,94,86,30.02,29.93,12,2,12,0.51
2013-10-17,70,60,50,58,54,48,98,85,56,30.02,29.94,10,1,10,0.02
2013-10-18,74,58,45,58,51,44,96,80,47,30.08,29.93,5,0,5,0.00
2013-10-19,60,54,43,57,49,41,95,86,63,30.08,29.91,14,2,14,0.04
2013-10-20,69,52,39,53,44,37,96,76,42,30.12,29.98,9,1,9,0.00
2013-10-21,74,57,42,58,49,40,96,77,45,30.08,29.96,15,2,15,0.02
2013-10-22,69,58,50,54,49,43,93,77,41,30.07,29.89,10,2,10,0.04
2013-10-23,62,52,44,50,42,38,91,72,46,30.17,29.94,15,2,15,0.00
2013-10-24,67,52,41,50,43,37,94,74,47,30.38,30.10,14,2,14,0.00
2013-10-25,58,44,34,40,34,30,90,70,39,30.53,30.33,13,2,13,0.00
2013-10-26,65,50,36,51,42,34,93,74,46,30.33,30.09,14,2,14,0.00
2013-10-27,69,60,51,60,55,49,94,87,70,30.10,30.00,10,1,10,0.00
2013-10-28,73,62,56,62,57,54,95,86,59,30.21,30.05,6,0,6,0.00
2013-10-29,76,65,52,68,61,51,97,87,71,30.24,30.09,12,2,12,0.00
2013-10-30,76,69,60,68,64,58,95,85,74,30.17,29.94,12,3,12,0.00
2013-10-31,72,68,62,68,65,54,97,90,66,29.94,29.55,27,9,27,1.24
2013-11-1,74,60,48,55,51,46,96,76,42,29.90,29.75,13,2,13,0.03
2013-11-2,63,52,42,52,46,39,96,80,52,30.20,29.88,14,2,14,0.01
2013-11-3,65,47,36,47,40,34,96,80,43,30.31,30.16,8,1,8,0.00
2013-11-4,67,54,43,52,46,40,91,75,48,30.29,30.18,16,2,16,0.00
2013-11-5,74,62,54,56,51,46,83,66,52,30.29,30.12,16,4,16,0.00
2013-11-6,63,58,46,61,53,42,96,83,67,30.25,30.03,20,6,20,0.25
2013-11-7,60,47,38,42,38,35,92,74,42,30.41,30.25,17,3,17,0.00
2013-11-8,67,48,33,46,39,31,100,75,34,30.40,30.21,6,1,6,0.00
2013-11-9,61,51,41,47,43,38,91,76,50,30.29,30.19,13,1,13,0.00
2013-11-10,71,54,43,51,45,40,95,75,39,30.35,30.25,12,2,12,0.00
2013-11-11,74,53,38,51,44,36,94,74,37,30.31,30.15,9,1,9,0.00
2013-11-12,55,42,32,51,32,23,93,69,46,30.67,30.21,22,8,22,0.00
2013-11-13,53,36,27,31,25,22,92,67,32,30.73,30.45,10,2,10,0.00
2013-11-14,59,41,25,31,27,22,92,64,28,30.45,30.15,13,2,13,0.00
2013-11-15,62,50,37,54,46,32,94,85,73,30.17,30.01,9,1,9,0.06
2013-11-16,69,62,54,65,59,51,96,91,86,30.04,29.85,20,5,20,0.00
2013-11-17,78,70,56,72,66,48,97,88,67,29.98,29.69,26,8,26,0.83
2013-11-18,67,55,41,50,39,32,93,58,33,30.25,29.98,15,3,15,0.00
2013-11-19,53,44,34,36,32,28,89,63,38,30.31,30.17,13,2,13,0.00
2013-11-20,67,48,31,43,37,29,93,70,40,30.19,30.06,12,1,12,0.00
2013-11-21,69,59,48,60,53,42,95,81,68,30.20,30.09,14,4,14,0.36
2013-11-22,60,54,44,60,52,41,97,93,88,30.39,30.14,18,6,18,0.28
2013-11-23,47,42,30,41,32,20,90,71,42,30.58,30.35,21,9,21,0.00
2013-11-24,40,31,24,20,18,16,73,60,42,30.67,30.43,18,7,18,0.00
2013-11-25,37,35,33,35,28,18,93,76,54,30.44,30.14,6,2,6,0.16
2013-11-26,42,37,34,38,34,25,95,88,68,30.15,29.95,22,6,22,0.12
2013-11-27,37,29,22,25,19,16,87,67,50,30.42,30.14,18,5,18,0.01
2013-11-28,48,31,20,26,22,18,91,73,39,30.50,30.39,9,2,9,0.00
2013-11-29,60,39,25,35,30,23,100,73,39,30.57,30.43,6,1,6,0.00
2013-11-30,58,43,26,36,31,24,93,66,37,30.45,30.21,12,2,12,0.00
2013-12-1,61,52,40,47,40,32,80,64,55,30.21,29.92,8,2,8,0.00
2013-12-2,61,55,47,55,50,43,92,82,68,29.92,29.70,7,1,7,0.00
2013-12-3,60,55,46,58,54,44,97,95,91,29.75,29.66,7,1,7,0.00
2013-12-4,76,68,59,65,63,58,97,84,68,29.81,29.67,20,7,20,0.00
2013-12-5,71,50,35,67,46,33,94,89,78,30.15,29.80,17,7,17,0.45
2013-12-6,35,32,26,33,30,24,100,94,92,30.45,30.07,16,4,16,0.68
2013-12-7,30,26,23,28,24,20,93,90,88,30.59,30.33,0,0,0,0.00
2013-12-8,35,33,30,34,31,28,96,95,93,30.37,30.07,9,1,9,0.01
2013-12-9,34,33,32,31,30,29,95,89,84,30.32,30.16,12,4,12,0.00
2013-12-10,43,32,25,31,26,21,91,79,60,30.45,30.21,12,2,12,0.02
2013-12-11,48,33,22,32,26,20,92,78,51,30.59,30.40,12,2,12,0.01
2013-12-12,49,32,21,25,21,16,85,67,32,30.64,30.40,12,1,12,0.00
2013-12-13,49,36,24,38,28,21,93,75,39,30.40,29.92,10,1,10,0.49
2013-12-14,45,41,36,44,38,32,99,90,83,30.15,29.79,15,4,15,0.25
2013-12-15,42,35,32,32,30,28,90,81,67,30.30,30.15,14,3,14,0.00
2013-12-16,60,45,32,42,36,30,91,72,49,30.23,30.11,16,4,16,0.01
2013-12-17,63,48,32,43,37,30,90,69,47,30.31,30.15,12,2,12,0.00
2013-12-18,62,45,28,40,33,26,94,68,36,30.36,30.11,13,2,13,0.00
2013-12-19,62,55,47,55,47,39,79,74,66,30.15,29.93,16,6,16,0.00
2013-12-20,69,65,60,66,60,54,95,86,77,29.97,29.79,20,8,20,0.43
2013-12-21,76,67,54,68,63,53,97,87,72,29.79,29.45,28,9,28,1.19
2013-12-22,56,50,38,53,47,32,97,90,79,30.24,29.70,14,3,14,0.00
2013-12-23,41,35,27,32,28,25,90,76,62,30.52,30.24,15,5,15,0.00
2013-12-24,40,30,25,26,21,17,92,72,44,30.64,30.43,12,2,12,0.00
2013-12-25,53,35,22,34,26,18,90,70,40,30.44,30.31,9,1,9,0.00
2013-12-26,51,36,26,34,28,24,99,76,44,30.46,30.35,10,1,10,0.00
2013-12-27,60,39,25,34,29,23,93,72,35,30.49,30.36,4,0,4,0.00
2013-12-28,47,40,31,41,35,28,94,84,71,30.36,29.97,5,0,5,0.08
2013-12-29,56,45,36,45,40,30,97,83,63,30.20,29.95,20,3,20,0.08
2013-12-30,36,32,30,30,26,24,83,79,76,30.37,30.20,12,3,12,0.00
2013-12-31,52,34,22,32,26,20,93,75,44,30.48,30.32,5,1,5,0.00
2014-1-1,58,40,24,44,32,22,94,75,44,30.32,29.94,8,2,8,0.02
2014-1-2,50,35,24,48,28,15,94,77,63,30.47,29.88,23,7,23,0.20